Time;durP1;ratioP1;P1;durP2;ratioP2;P2;SDS_P1;SDS_P2;PMS_P1;PMS_P2;Temp;Humidity;BMP_temperature;BMP_pressure;BME280_temperature;BME280_humidity;BME280_pressure;Samples;Min_cycle;Max_cycle;Signal;HPM_P1;HPM_P2
2023/08/25 00:01:18;;;;;;;0.10;0.10;;;;;;;11.70;84.70;99599.59;4970059;28;20116;-76
2023/08/25 00:03:44;;;;;;;0.10;0.10;;;;;;;11.69;84.89;99600.69;4972034;28;20051;-79
2023/08/25 00:06:11;;;;;;;0.10;0.10;;;;;;;11.70;84.32;99605.06;4984547;28;20156;-79
2023/08/25 00:08:37;;;;;;;0.20;0.20;;;;;;;11.69;84.24;99611.66;4971272;28;20070;-79
2023/08/25 00:11:06;;;;;;;0.10;0.10;;;;;;;11.58;85.02;99586.28;4955108;28;20097;-78
2023/08/25 00:13:35;;;;;;;0.10;0.10;;;;;;;11.67;85.55;99596.63;4970646;28;20142;-78
2023/08/25 00:16:03;;;;;;;0.10;0.10;;;;;;;11.62;85.82;99598.28;4968484;28;20387;-79
2023/08/25 00:18:29;;;;;;;0.10;0.10;;;;;;;11.61;86.22;99596.66;4967161;28;20519;-78
2023/08/25 00:20:56;;;;;;;0.10;0.10;;;;;;;11.55;86.73;99589.59;4967198;28;20063;-78
2023/08/25 00:23:22;;;;;;;0.10;0.10;;;;;;;11.52;87.28;99595.66;4983901;28;20061;-78
2023/08/25 00:25:48;;;;;;;0.20;0.20;;;;;;;11.42;88.07;99602.03;4969955;28;20046;-78
2023/08/25 00:28:15;;;;;;;0.10;0.10;;;;;;;11.38;88.61;99598.19;4966327;28;20043;-75
2023/08/25 00:30:42;;;;;;;0.13;0.13;;;;;;;11.34;88.93;99597.13;4966105;28;20508;-75
2023/08/25 00:33:08;;;;;;;0.10;0.10;;;;;;;11.19;89.12;99576.19;4966633;28;20055;-75
2023/08/25 00:35:35;;;;;;;0.10;0.10;;;;;;;11.31;89.01;99595.78;4951868;28;20581;-78
2023/08/25 00:38:02;;;;;;;0.10;0.10;;;;;;;11.25;89.42;99590.66;4935668;28;20550;-79
2023/08/25 00:40:34;;;;;;;0.20;0.20;;;;;;;11.24;90.20;99592.56;4973246;28;20062;-78
2023/08/25 00:43:01;;;;;;;0.10;0.10;;;;;;;11.18;90.95;99602.72;4967898;28;20054;-78
2023/08/25 00:45:32;;;;;;;0.10;0.10;;;;;;;11.14;91.46;99598.09;4983146;28;20129;-77
2023/08/25 00:47:59;;;;;;;0.10;0.10;;;;;;;11.03;91.80;99579.03;4957527;28;20041;-78
2023/08/25 00:50:28;;;;;;;0.20;0.13;;;;;;;11.11;91.95;99593.19;4968677;28;20038;-76
2023/08/25 00:52:55;;;;;;;0.10;0.10;;;;;;;11.13;92.57;99599.19;4969266;28;20055;-78
2023/08/25 00:55:23;;;;;;;0.20;0.20;;;;;;;11.12;92.59;99609.34;4968571;28;20043;-76
2023/08/25 00:57:51;;;;;;;0.10;0.10;;;;;;;11.09;92.96;99593.50;4983623;28;20101;-79
2023/08/25 01:00:17;;;;;;;0.10;0.10;;;;;;;10.99;93.45;99594.34;4967638;28;20599;-76
2023/08/25 01:02:45;;;;;;;0.10;0.10;;;;;;;11.05;93.22;99611.56;4966174;28;20050;-76
2023/08/25 01:05:11;;;;;;;0.10;0.10;;;;;;;11.01;93.29;99605.03;4967376;28;20073;-76
2023/08/25 01:07:38;;;;;;;0.10;0.10;;;;;;;10.96;93.66;99605.88;4936605;28;20050;-75
2023/08/25 01:10:06;;;;;;;0.10;0.10;;;;;;;10.90;93.83;99605.06;4969554;28;20145;-77
2023/08/25 01:12:35;;;;;;;;;;;;;;;10.86;94.39;99611.41;4968799;28;20062;-77
2023/08/25 01:15:07;;;;;;;0.10;0.10;;;;;;;10.84;94.75;99619.88;4967159;28;19926;-75
2023/08/25 01:17:38;;;;;;;0.10;0.10;;;;;;;10.81;94.94;99620.44;4965203;28;20093;-76
2023/08/25 01:20:08;;;;;;;0.10;0.10;;;;;;;10.71;95.30;99610.38;4975442;28;20325;-75
2023/08/25 01:22:49;;;;;;;0.10;0.10;;;;;;;10.76;95.58;99614.97;4958178;28;20058;-75
2023/08/25 01:25:25;;;;;;;0.10;0.10;;;;;;;10.63;95.74;99598.09;4964665;28;20054;-76
2023/08/25 01:27:52;;;;;;;0.38;0.10;;;;;;;10.75;95.67;99621.56;4969987;28;20051;-80
2023/08/25 01:30:22;;;;;;;0.10;0.10;;;;;;;10.59;96.05;99596.22;4970122;28;20047;-80
2023/08/25 01:32:49;;;;;;;0.10;0.10;;;;;;;10.54;96.08;99597.03;4969703;28;20057;-80
2023/08/25 01:35:16;;;;;;;0.10;0.10;;;;;;;10.67;96.35;99616.69;4967376;28;20070;-80
2023/08/25 01:37:50;;;;;;;0.10;0.10;;;;;;;10.62;96.27;99612.03;4968719;28;20055;-81
2023/08/25 01:40:24;;;;;;;0.10;0.10;;;;;;;10.56;96.42;99597.56;4967188;28;20047;-76
2023/08/25 01:42:54;;;;;;;0.10;0.10;;;;;;;10.61;96.68;99611.25;4967672;28;20553;-80
2023/08/25 01:45:22;;;;;;;0.10;0.10;;;;;;;10.61;97.04;99611.25;4967532;28;20494;-79
2023/08/25 01:47:52;;;;;;;0.10;0.10;;;;;;;10.64;97.29;99607.94;4970735;28;20050;-79
2023/08/25 01:50:20;;;;;;;0.10;0.10;;;;;;;10.60;97.48;99611.50;4952526;29;20057;-79
2023/08/25 01:52:49;;;;;;;0.10;0.10;;;;;;;10.63;97.82;99613.69;4966119;28;20067;-81
2023/08/25 01:55:16;;;;;;;;;;;;;;;10.61;98.03;99615.88;4966827;28;20552;-80
2023/08/25 01:57:44;;;;;;;0.10;0.10;;;;;;;10.59;98.17;99609.88;4966999;28;19949;-82
2023/08/25 02:00:11;;;;;;;0.10;0.10;;;;;;;10.53;98.02;99602.78;4969492;28;20053;-81
2023/08/25 02:02:43;;;;;;;0.10;0.10;;;;;;;10.51;98.32;99603.06;4967041;28;20057;-78
2023/08/25 02:05:10;;;;;;;0.10;0.10;;;;;;;10.40;98.55;99596.81;4952254;28;20081;-77
2023/08/25 02:07:37;;;;;;;0.10;0.10;;;;;;;10.49;98.53;99605.28;4963688;28;20085;-79
2023/08/25 02:10:04;;;;;;;0.10;0.10;;;;;;;10.48;98.52;99612.63;4965892;28;20039;-76
2023/08/25 02:12:30;;;;;;;0.10;0.10;;;;;;;10.37;98.76;99611.00;4965118;28;20054;-75
2023/08/25 02:14:58;;;;;;;0.10;0.10;;;;;;;10.29;98.87;99592.44;4959206;28;20043;-76
2023/08/25 02:17:24;;;;;;;0.22;0.10;;;;;;;10.44;99.17;99627.13;4982001;28;20054;-76
2023/08/25 02:19:52;;;;;;;0.10;0.10;;;;;;;10.41;99.25;99625.78;4965649;28;20078;-76
2023/08/25 02:22:18;;;;;;;0.10;0.10;;;;;;;10.38;99.32;99620.84;4972490;28;20051;-75
2023/08/25 02:24:45;;;;;;;0.10;0.10;;;;;;;10.39;99.46;99614.28;4972874;28;20047;-78
2023/08/25 02:27:11;;;;;;;0.10;0.10;;;;;;;10.36;99.69;99618.38;4987935;28;20062;-75
2023/08/25 02:29:37;;;;;;;0.10;0.10;;;;;;;10.40;100.00;99626.03;4971889;28;20065;-75
2023/08/25 02:32:06;;;;;;;0.10;0.10;;;;;;;10.42;100.00;99627.44;4976420;28;20070;-76
2023/08/25 02:34:32;;;;;;;0.10;0.10;;;;;;;10.44;100.00;99624.41;4972251;28;20057;-75
2023/08/25 02:36:59;;;;;;;0.10;0.10;;;;;;;10.47;100.00;99621.13;4976158;28;21209;-76
2023/08/25 02:39:25;;;;;;;0.10;0.10;;;;;;;10.47;100.00;99632.06;4973553;28;20051;-74
2023/08/25 02:41:51;;;;;;;0.10;0.10;;;;;;;10.50;100.00;99634.25;4980231;28;20051;-78
2023/08/25 02:44:18;;;;;;;0.10;0.10;;;;;;;10.43;100.00;99614.56;4971537;28;20058;-78
2023/08/25 02:46:46;;;;;;;0.10;0.10;;;;;;;10.54;99.42;99626.31;4988061;28;20410;-75
2023/08/25 02:49:13;;;;;;;;;;;;;;;10.58;99.22;99628.19;4968883;28;20050;-77
2023/08/25 02:51:40;;;;;;;0.10;0.10;;;;;;;10.57;99.15;99623.81;4970904;28;19926;-77
2023/08/25 02:54:06;;;;;;;0.20;0.20;;;;;;;10.63;99.00;99635.56;4953395;28;20050;-79
2023/08/25 02:56:32;;;;;;;0.10;0.10;;;;;;;10.61;98.97;99619.44;4986114;28;20046;-79
2023/08/25 02:58:59;;;;;;;0.10;0.10;;;;;;;10.60;98.61;99614.25;4971432;28;20051;-76
2023/08/25 03:01:25;;;;;;;0.20;0.20;;;;;;;10.71;98.42;99629.53;4968232;28;20050;-79
2023/08/25 03:03:52;;;;;;;0.20;0.20;;;;;;;10.76;98.28;99632.22;4968034;28;20357;-78
2023/08/25 03:06:23;;;;;;;0.20;0.20;;;;;;;10.83;97.93;99626.44;4952612;28;20513;-75
2023/08/25 03:08:50;;;;;;;0.13;0.13;;;;;;;10.84;97.84;99627.25;4972003;28;20075;-78
2023/08/25 03:11:16;;;;;;;0.10;0.10;;;;;;;10.96;97.17;99638.69;4964275;28;20138;-77
2023/08/25 03:13:46;;;;;;;0.20;0.20;;;;;;;10.99;97.00;99635.38;4945988;28;20487;-79
2023/08/25 03:16:12;;;;;;;0.20;0.20;;;;;;;11.02;96.75;99634.84;4984041;28;20051;-78
2023/08/25 03:18:41;;;;;;;0.10;0.10;;;;;;;11.12;96.02;99646.81;4966977;28;20066;-78
2023/08/25 03:21:07;;;;;;;0.10;0.10;;;;;;;11.17;95.91;99642.13;4964818;28;20047;-79
2023/08/25 03:23:35;;;;;;;0.20;0.20;;;;;;;11.24;95.44;99644.56;4949723;28;20530;-79
2023/08/25 03:26:03;;;;;;;0.10;0.10;;;;;;;11.30;95.23;99648.88;4950404;28;20075;-76
2023/08/25 03:28:29;;;;;;;0.17;0.17;;;;;;;11.32;94.79;99645.88;4944856;28;20414;-76
2023/08/25 03:30:57;;;;;;;0.20;0.20;;;;;;;11.46;94.37;99657.84;4975386;28;20045;-78
2023/08/25 03:33:24;;;;;;;0.20;0.20;;;;;;;11.40;93.80;99638.97;4972130;28;20449;-75
2023/08/25 03:35:51;;;;;;;0.10;0.10;;;;;;;11.55;93.33;99647.09;4957568;28;20051;-76
2023/08/25 03:38:19;;;;;;;0.20;0.20;;;;;;;11.41;93.09;99624.19;4949191;28;20117;-74
2023/08/25 03:40:47;;;;;;;0.20;0.20;;;;;;;11.66;92.91;99652.50;4968121;28;20051;-75
2023/08/25 03:43:13;;;;;;;0.20;0.20;;;;;;;11.73;92.52;99655.72;4968329;28;20047;-75
2023/08/25 03:45:40;;;;;;;0.20;0.20;;;;;;;11.81;91.82;99657.84;4965599;28;20051;-73
2023/08/25 03:48:07;;;;;;;0.20;0.20;;;;;;;11.83;91.37;99647.44;4965784;28;20150;-75
2023/08/25 03:50:33;;;;;;;0.10;0.10;;;;;;;11.88;91.14;99641.91;4938003;28;20051;-76
2023/08/25 03:53:00;;;;;;;0.20;0.20;;;;;;;12.02;89.73;99654.97;4969415;28;20138;-75
2023/08/25 03:55:26;;;;;;;0.20;0.20;;;;;;;11.99;89.47;99642.63;4952365;28;20093;-75
2023/08/25 03:57:55;;;;;;;0.20;0.20;;;;;;;12.15;88.97;99665.25;4968945;28;20077;-75
2023/08/25 04:00:22;;;;;;;0.30;0.30;;;;;;;12.23;88.95;99663.81;4969582;28;20046;-75
2023/08/25 04:02:48;;;;;;;0.20;0.20;;;;;;;12.30;88.46;99664.28;4969113;28;20065;-74
2023/08/25 04:05:14;;;;;;;0.20;0.20;;;;;;;12.32;87.83;99653.84;4968824;28;20047;-75
2023/08/25 04:07:41;;;;;;;0.20;0.20;;;;;;;12.31;87.50;99643.19;4968298;28;20109;-78
2023/08/25 04:10:08;;;;;;;0.22;0.22;;;;;;;12.48;86.77;99659.97;4969396;28;20117;-81
2023/08/25 04:12:34;;;;;;;0.15;0.15;;;;;;;12.61;86.33;99668.63;4971249;28;20058;-76
2023/08/25 04:15:03;;;;;;;0.33;0.20;;;;;;;12.50;85.70;99632.28;4967689;28;20061;-76
2023/08/25 04:17:34;;;;;;;0.20;0.20;;;;;;;12.76;85.20;99662.97;4951705;28;20055;-76
2023/08/25 04:20:01;;;;;;;0.20;0.20;;;;;;;12.75;84.59;99658.59;4967693;28;20047;-75
2023/08/25 04:22:29;;;;;;;0.20;0.20;;;;;;;12.90;83.92;99668.53;4967931;28;20070;-76
2023/08/25 04:24:57;;;;;;;0.20;0.20;;;;;;;12.94;83.30;99665.22;4967318;28;20074;-76
2023/08/25 04:27:23;;;;;;;0.20;0.20;;;;;;;12.94;81.96;99643.25;4968756;28;20823;-75
2023/08/25 04:29:51;;;;;;;0.20;0.20;;;;;;;13.05;81.58;99656.56;4968313;28;20427;-76
2023/08/25 04:32:20;;;;;;;0.20;0.20;;;;;;;13.23;81.34;99673.34;4969091;28;20054;-74
2023/08/25 04:34:48;;;;;;;0.20;0.20;;;;;;;13.26;80.57;99666.44;4967297;28;20051;-77
2023/08/25 04:37:17;;;;;;;0.20;0.20;;;;;;;13.38;79.78;99674.25;4969598;28;20047;-76
2023/08/25 04:39:47;;;;;;;0.20;0.20;;;;;;;13.49;79.07;99672.19;4967631;28;20061;-76
2023/08/25 04:42:15;;;;;;;;;;;;;;;13.60;78.90;99685.47;4971459;28;20055;-76
2023/08/25 04:44:42;;;;;;;;;;;;;;;13.65;77.91;99687.31;4971760;28;19926;-76
2023/08/25 04:47:10;;;;;;;0.20;0.20;;;;;;;13.73;76.61;99680.34;4969337;28;20320;-76
2023/08/25 04:49:38;;;;;;;0.20;0.20;;;;;;;13.80;75.93;99694.50;4966260;28;20042;-74
2023/08/25 04:52:04;;;;;;;0.20;0.20;;;;;;;13.88;74.79;99687.50;4967645;28;20066;-76
2023/08/25 04:54:31;;;;;;;0.20;0.20;;;;;;;13.98;74.16;99686.56;4969150;28;20043;-76
2023/08/25 04:56:59;;;;;;;0.30;0.30;;;;;;;14.07;73.61;99695.72;4971722;28;20054;-76
2023/08/25 04:59:27;;;;;;;0.20;0.20;;;;;;;14.12;72.44;99687.38;4969466;28;20079;-75
2023/08/25 05:01:53;;;;;;;0.20;0.20;;;;;;;14.15;71.30;99681.31;4966247;28;20090;-75
2023/08/25 05:04:20;;;;;;;0.20;0.20;;;;;;;14.16;69.84;99682.94;4966321;28;20059;-76
2023/08/25 05:06:48;;;;;;;0.20;0.20;;;;;;;14.20;70.46;99674.06;4966305;28;20141;-75
2023/08/25 05:09:14;;;;;;;0.20;0.20;;;;;;;14.33;69.91;99690.59;4968341;28;20065;-76
2023/08/25 05:11:41;;;;;;;0.20;0.20;;;;;;;14.40;69.80;99694.91;4980856;28;20047;-76
2023/08/25 05:14:08;;;;;;;0.25;0.25;;;;;;;14.24;69.52;99666.84;4978835;28;20058;-76
2023/08/25 05:16:34;;;;;;;0.20;0.20;;;;;;;14.42;68.77;99681.66;4963650;28;20565;-75
2023/08/25 05:19:11;;;;;;;0.20;0.20;;;;;;;14.49;67.71;99686.75;4968386;28;20105;-76
2023/08/25 05:21:38;;;;;;;0.30;0.30;;;;;;;14.66;67.39;99706.22;4967323;28;20050;-77
2023/08/25 05:24:20;;;;;;;0.20;0.20;;;;;;;14.66;67.56;99700.72;4965972;28;20057;-77
2023/08/25 05:26:53;;;;;;;0.20;0.20;;;;;;;14.66;67.08;99686.16;4966460;28;20051;-77
2023/08/25 05:29:20;;;;;;;0.20;0.20;;;;;;;14.78;65.02;99696.69;4967769;28;20529;-75
2023/08/25 05:31:49;;;;;;;0.20;0.20;;;;;;;14.79;65.41;99701.88;4953558;28;20054;-76
2023/08/25 05:34:33;;;;;;;;;;;;;;;14.81;64.55;99694.13;4978005;28;20115;-79
2023/08/25 05:37:05;;;;;;;0.20;0.20;;;;;;;14.83;63.64;99705.66;4968864;28;19926;-76
2023/08/25 05:39:33;;;;;;;0.20;0.20;;;;;;;14.86;63.02;99707.81;4982433;28;20050;-78
2023/08/25 05:42:00;;;;;;;0.20;0.20;;;;;;;14.93;64.10;99701.06;4968468;28;20043;-78
2023/08/25 05:44:27;;;;;;;0.20;0.20;;;;;;;14.97;63.83;99702.91;4966564;28;20054;-80
2023/08/25 05:46:53;;;;;;;0.20;0.20;;;;;;;14.94;63.13;99691.69;4967175;28;20142;-78
2023/08/25 05:49:20;;;;;;;0.20;0.20;;;;;;;15.04;61.90;99697.00;4969036;28;20146;-77
2023/08/25 05:51:47;;;;;;;0.20;0.20;;;;;;;14.94;61.56;99689.75;4968775;28;20341;-78
2023/08/25 05:54:15;;;;;;;0.30;0.30;;;;;;;15.06;62.01;99696.66;4966893;28;20965;-79
2023/08/25 05:56:43;;;;;;;0.30;0.30;;;;;;;15.35;61.76;99717.53;4967135;28;20042;-78
2023/08/25 05:59:10;;;;;;;0.30;0.30;;;;;;;15.66;60.39;99719.59;4966087;28;20050;-77
2023/08/25 06:01:36;;;;;;;0.20;0.20;;;;;;;15.85;57.60;99698.22;4967163;28;20146;-79
2023/08/25 06:04:03;;;;;;;0.30;0.30;;;;;;;16.16;56.71;99710.44;4966786;28;20050;-78
2023/08/25 06:06:30;;;;;;;0.30;0.30;;;;;;;16.32;56.43;99696.25;4962871;28;20053;-78
2023/08/25 06:08:57;;;;;;;0.40;0.30;;;;;;;16.65;54.21;99705.03;4959555;28;20537;-78
2023/08/25 06:11:23;;;;;;;0.30;0.30;;;;;;;16.80;54.11;99706.53;4950715;28;20137;-79
2023/08/25 06:13:51;;;;;;;0.30;0.30;;;;;;;17.00;52.20;99698.84;4968661;28;20059;-78
2023/08/25 06:16:17;;;;;;;0.30;0.30;;;;;;;17.13;51.04;99708.94;4969382;28;20051;-79
2023/08/25 06:18:44;;;;;;;0.30;0.30;;;;;;;16.91;50.06;99711.78;4982367;28;20058;-78
2023/08/25 06:21:11;;;;;;;0.30;0.30;;;;;;;16.89;51.09;99714.06;4968435;28;20131;-78
2023/08/25 06:23:37;;;;;;;0.30;0.30;;;;;;;17.04;49.63;99712.81;4951390;28;20042;-79
2023/08/25 06:26:07;;;;;;;0.30;0.30;;;;;;;17.00;48.68;99687.78;4966949;28;20047;-80
2023/08/25 06:28:34;;;;;;;0.30;0.30;;;;;;;17.31;49.54;99694.38;4968073;28;20078;-78
2023/08/25 06:31:02;;;;;;;0.30;0.30;;;;;;;17.64;48.86;99691.13;4970128;28;20134;-79
2023/08/25 06:33:31;;;;;;;0.30;0.30;;;;;;;18.02;48.51;99704.31;4968091;28;20537;-78
2023/08/25 06:35:57;;;;;;;0.30;0.30;;;;;;;18.22;47.41;99699.25;4967574;28;20051;-79
2023/08/25 06:38:24;;;;;;;0.30;0.30;;;;;;;18.40;45.41;99698.06;4968711;28;20105;-77
2023/08/25 06:40:51;;;;;;;0.30;0.30;;;;;;;18.33;45.43;99674.78;4981584;28;20074;-77
2023/08/25 06:43:18;;;;;;;0.30;0.30;;;;;;;18.45;44.41;99674.91;4967401;28;20088;-78
2023/08/25 06:45:44;;;;;;;0.30;0.30;;;;;;;18.82;44.44;99689.09;4968089;28;20145;-76
2023/08/25 06:48:27;;;;;;;0.30;0.30;;;;;;;18.92;43.73;99696.19;4968629;28;20521;-76
2023/08/25 06:50:53;;;;;;;0.30;0.30;;;;;;;18.85;43.06;99684.84;4968310;28;20097;-76
2023/08/25 06:53:20;;;;;;;0.30;0.30;;;;;;;18.81;43.25;99684.69;4967050;28;20406;-76
2023/08/25 06:55:46;;;;;;;0.30;0.30;;;;;;;18.94;42.64;99702.22;4982842;28;20075;-77
2023/08/25 06:58:13;;;;;;;0.30;0.30;;;;;;;18.80;42.63;99698.88;4967616;28;20043;-76
2023/08/25 07:00:39;;;;;;;0.30;0.30;;;;;;;18.95;42.13;99703.84;4968499;28;20095;-76
2023/08/25 07:03:07;;;;;;;0.30;0.30;;;;;;;19.14;42.39;99710.97;4966015;28;20321;-76
2023/08/25 07:05:40;;;;;;;0.30;0.30;;;;;;;19.33;42.10;99690.31;4967010;28;20384;-77
2023/08/25 07:08:06;;;;;;;0.32;0.32;;;;;;;19.28;40.93;99677.44;4970036;28;20058;-78
2023/08/25 07:10:33;;;;;;;0.30;0.30;;;;;;;19.63;41.35;99717.97;4954986;28;20467;-77
2023/08/25 07:13:01;;;;;;;;;;;;;;;19.94;40.41;99714.78;4971489;28;20465;-77
2023/08/25 07:15:28;;;;;;;0.30;0.30;;;;;;;20.22;39.25;99718.94;4972423;28;19926;-77
2023/08/25 07:17:55;;;;;;;0.30;0.30;;;;;;;20.33;38.64;99706.22;4968629;28;20066;-78
2023/08/25 07:20:21;;;;;;;0.40;0.40;;;;;;;20.30;38.21;99692.25;4970229;28;20109;-78
2023/08/25 07:22:50;;;;;;;0.30;0.30;;;;;;;20.82;38.46;99722.19;4970428;28;20090;-78
2023/08/25 07:25:16;;;;;;;0.30;0.30;;;;;;;20.80;37.47;99662.56;4971021;28;20521;-77
2023/08/25 07:27:42;;;;;;;0.40;0.40;;;;;;;21.23;36.96;99690.94;4970572;28;20398;-78
2023/08/25 07:30:09;;;;;;;0.30;0.30;;;;;;;21.62;36.53;99704.38;4968893;28;20055;-79
2023/08/25 07:32:38;;;;;;;0.40;0.40;;;;;;;21.90;35.98;99726.72;4954897;28;20066;-79
2023/08/25 07:35:05;;;;;;;0.40;0.40;;;;;;;22.13;34.55;99723.34;4969000;28;20330;-80
2023/08/25 07:37:32;;;;;;;;;;;;;;;22.17;34.96;99717.88;4972193;28;20665;-79
2023/08/25 07:40:00;;;;;;;0.30;0.30;;;;;;;21.90;35.15;99710.00;4970671;28;19933;-78
2023/08/25 07:42:26;;;;;;;0.30;0.30;;;;;;;21.45;35.71;99722.16;4971811;28;20055;-79
2023/08/25 07:44:53;;;;;;;0.30;0.30;;;;;;;21.08;36.24;99701.59;4971168;28;20050;-78
2023/08/25 07:47:19;;;;;;;0.30;0.30;;;;;;;20.75;36.69;99726.69;4968849;28;20051;-79
2023/08/25 07:49:46;;;;;;;0.30;0.30;;;;;;;20.33;37.79;99725.66;4970153;28;20809;-80
2023/08/25 07:52:13;;;;;;;0.60;0.40;;;;;;;20.78;37.17;99709.31;4970090;28;20071;-78
2023/08/25 07:54:39;;;;;;;0.30;0.30;;;;;;;21.58;35.26;99682.03;4985456;28;20139;-78
2023/08/25 07:57:07;;;;;;;0.30;0.30;;;;;;;22.35;33.71;99673.81;4971309;28;20051;-78
2023/08/25 07:59:34;;;;;;;0.40;0.40;;;;;;;23.06;32.56;99703.84;4969582;28;20306;-78
2023/08/25 08:02:02;;;;;;;0.30;0.30;;;;;;;23.17;31.96;99673.41;4968947;28;20051;-78
2023/08/25 08:04:30;;;;;;;0.40;0.40;;;;;;;23.51;31.49;99702.50;4969515;28;20058;-78
2023/08/25 08:06:57;;;;;;;0.40;0.40;;;;;;;23.56;31.45;99706.19;4966862;28;20082;-78
2023/08/25 08:09:26;;;;;;;0.40;0.40;;;;;;;24.04;31.27;99700.38;4972276;28;20046;-79
2023/08/25 08:11:52;;;;;;;0.50;0.50;;;;;;;24.49;30.63;99718.38;4969496;28;20115;-80
2023/08/25 08:14:20;;;;;;;0.47;0.47;;;;;;;24.75;29.62;99711.25;4969871;28;20049;-79
2023/08/25 08:16:47;;;;;;;0.40;0.40;;;;;;;25.06;29.36;99692.59;4969881;28;20106;-79
2023/08/25 08:19:14;;;;;;;0.50;0.50;;;;;;;25.05;28.54;99674.19;4985128;28;20069;-80
2023/08/25 08:21:42;;;;;;;0.50;0.50;;;;;;;25.02;29.05;99676.94;4971100;28;20480;-80
2023/08/25 08:24:09;;;;;;;0.40;0.40;;;;;;;25.34;28.87;99680.19;4968575;28;20042;-78
2023/08/25 08:27:10;;;;;;;0.50;0.50;;;;;;;25.61;27.83;99613.03;4966174;28;20046;-78
2023/08/25 08:29:39;;;;;;;0.40;0.40;;;;;;;26.29;27.37;99679.34;4946165;28;20070;-81
2023/08/25 08:32:08;;;;;;;0.32;0.32;;;;;;;24.71;29.18;99703.97;4981352;28;20057;-80
2023/08/25 08:34:36;;;;;;;0.40;0.40;;;;;;;23.21;31.74;99697.44;4965434;28;20050;-78
2023/08/25 08:37:05;;;;;;;0.30;0.30;;;;;;;22.18;32.93;99714.75;4966884;28;20465;-77
2023/08/25 08:39:33;;;;;;;0.30;0.30;;;;;;;21.29;34.51;99714.53;4966482;28;20094;-79
2023/08/25 08:42:08;;;;;;;0.30;0.30;;;;;;;20.68;35.97;99697.53;4967641;28;20141;-83
2023/08/25 08:44:35;;;;;;;0.25;0.25;;;;;;;20.61;36.53;99727.03;4965514;28;20057;-78
2023/08/25 08:47:06;;;;;;;0.30;0.30;;;;;;;20.20;35.96;99710.13;4963726;28;20048;-78
2023/08/25 08:49:33;;;;;;;0.30;0.30;;;;;;;20.03;36.06;99736.09;4968756;28;20080;-77
2023/08/25 08:52:01;;;;;;;0.30;0.30;;;;;;;19.76;36.74;99729.94;4964527;28;20699;-79
2023/08/25 08:54:28;;;;;;;0.30;0.30;;;;;;;19.34;37.08;99678.84;4981591;28;20097;-77
2023/08/25 08:56:55;;;;;;;0.30;0.30;;;;;;;19.46;37.10;99697.53;4965253;28;20068;-80
2023/08/25 08:59:22;;;;;;;0.30;0.30;;;;;;;19.84;36.65;99731.84;4969047;28;20054;-81
2023/08/25 09:01:48;;;;;;;0.30;0.30;;;;;;;19.98;35.65;99737.94;4967607;28;20057;-81
2023/08/25 09:04:20;;;;;;;0.40;0.40;;;;;;;20.05;35.02;99683.84;4967115;28;20142;-80
2023/08/25 09:06:51;;;;;;;0.50;0.50;;;;;;;21.74;33.25;99723.84;4966129;28;20309;-79
2023/08/25 09:09:20;;;;;;;0.50;0.50;;;;;;;23.29;30.77;99717.97;4968859;28;20839;-79
2023/08/25 09:11:47;;;;;;;0.40;0.40;;;;;;;24.36;29.00;99716.97;4967939;28;20047;-80
2023/08/25 09:14:22;;;;;;;0.50;0.50;;;;;;;25.21;27.99;99726.38;4967768;28;20066;-79
2023/08/25 09:16:49;;;;;;;0.57;0.57;;;;;;;25.61;26.40;99708.19;4971874;28;20105;-79
2023/08/25 09:19:20;;;;;;;0.55;0.55;;;;;;;26.04;26.01;99710.69;4968548;28;20058;-80
2023/08/25 09:21:46;;;;;;;0.60;0.60;;;;;;;26.34;25.56;99709.00;4966973;28;20046;-81
2023/08/25 09:24:18;;;;;;;0.60;0.60;;;;;;;26.78;24.33;99690.59;4967307;28;20061;-79
2023/08/25 09:26:46;;;;;;;0.60;0.60;;;;;;;26.95;23.93;99691.16;4968090;28;20074;-79
2023/08/25 09:29:13;;;;;;;0.60;0.60;;;;;;;27.01;23.59;99709.22;4961238;28;20525;-80
2023/08/25 09:31:40;;;;;;;0.70;0.70;;;;;;;26.87;23.72;99695.91;4949051;28;20122;-79
2023/08/25 09:34:08;;;;;;;0.40;0.40;;;;;;;26.57;24.04;99714.44;4948983;28;20070;-80
2023/08/25 09:36:51;;;;;;;0.40;0.40;;;;;;;25.74;25.96;99716.31;4969799;28;20105;-80
2023/08/25 09:39:18;;;;;;;0.30;0.30;;;;;;;24.56;27.49;99664.59;4965858;28;20137;-80
2023/08/25 09:41:44;;;;;;;0.30;0.30;;;;;;;23.92;28.47;99718.06;4965987;28;20046;-80
2023/08/25 09:44:11;;;;;;;0.30;0.30;;;;;;;22.90;30.11;99715.00;4963839;28;20050;-79
2023/08/25 09:46:39;;;;;;;0.30;0.30;;;;;;;22.14;31.01;99713.03;4966871;28;20051;-79
2023/08/25 09:49:06;;;;;;;0.30;0.30;;;;;;;21.45;31.49;99681.25;4963856;28;20085;-79
2023/08/25 09:51:37;;;;;;;0.30;0.30;;;;;;;21.36;31.81;99700.84;4965350;28;20055;-79
2023/08/25 09:54:08;;;;;;;0.30;0.30;;;;;;;21.28;31.46;99709.31;4948319;28;20054;-80
2023/08/25 09:56:36;;;;;;;0.30;0.30;;;;;;;21.00;31.68;99660.84;4964838;28;20059;-80
2023/08/25 09:59:03;;;;;;;0.60;0.60;;;;;;;21.41;32.06;99705.38;4948416;28;20134;-79
2023/08/25 10:01:31;;;;;;;0.60;0.60;;;;;;;23.34;29.40;99708.50;4965812;28;20058;-79
2023/08/25 10:03:59;;;;;;;0.60;0.60;;;;;;;25.34;27.22;99693.38;4965606;28;20093;-79
2023/08/25 10:06:29;;;;;;;0.70;0.70;;;;;;;26.33;25.99;99707.41;4982099;28;20078;-79
2023/08/25 10:08:58;;;;;;;0.40;0.40;;;;;;;27.51;24.32;99705.94;4966216;28;20149;-78
2023/08/25 10:11:28;;;;;;;0.40;0.40;;;;;;;27.17;24.08;99695.69;4967466;28;20062;-79
2023/08/25 10:13:56;;;;;;;0.60;0.60;;;;;;;26.82;24.49;99687.81;4965032;28;20117;-78
2023/08/25 10:16:31;;;;;;;0.40;0.40;;;;;;;27.22;23.61;99696.53;4967796;28;20059;-78
2023/08/25 10:19:01;;;;;;;0.40;0.40;;;;;;;26.15;25.23;99710.81;4969143;28;20051;-75
2023/08/25 10:21:30;;;;;;;0.40;0.40;;;;;;;25.25;26.63;99715.25;4967270;28;20601;-79
2023/08/25 10:24:07;;;;;;;0.30;0.30;;;;;;;24.23;27.92;99682.78;4965275;28;20054;-78
2023/08/25 10:26:34;;;;;;;0.40;0.40;;;;;;;23.80;28.02;99696.72;4966833;28;20050;-78
2023/08/25 10:29:01;;;;;;;;;;;;;;;23.53;28.53;99718.06;4950345;28;20051;-79
2023/08/25 10:31:30;;;;;;;;;;;;;;;23.37;28.68;99722.50;4981496;28;19935;-79
2023/08/25 10:33:57;;;;;;;0.30;0.30;;;;;;;22.84;29.62;99703.31;4965481;28;19926;-82
2023/08/25 10:36:24;;;;;;;0.30;0.30;;;;;;;22.63;29.92;99711.94;4965656;28;20042;-81
2023/08/25 10:39:09;;;;;;;0.30;0.30;;;;;;;22.40;30.89;99693.03;4947290;28;20572;-80
2023/08/25 10:41:42;;;;;;;0.30;0.30;;;;;;;22.47;30.68;99717.50;4963630;28;20061;-81
2023/08/25 10:44:10;;;;;;;0.30;0.30;;;;;;;22.29;31.36;99711.44;4984771;28;20506;-79
2023/08/25 10:46:38;;;;;;;0.30;0.30;;;;;;;22.04;31.70;99697.66;4971067;28;20051;-79
2023/08/25 10:49:12;;;;;;;0.40;0.40;;;;;;;22.20;31.88;99709.66;4966840;28;20105;-80
2023/08/25 10:51:39;;;;;;;0.50;0.50;;;;;;;22.58;31.17;99707.47;4970493;28;20070;-81
2023/08/25 10:54:20;;;;;;;0.60;0.60;;;;;;;24.07;29.02;99678.13;4984803;28;20062;-79
2023/08/25 10:56:47;;;;;;;0.90;0.90;;;;;;;26.23;26.19;99682.91;4968198;28;20066;-80
2023/08/25 10:59:17;;;;;;;0.90;0.90;;;;;;;28.49;23.20;99666.09;4970406;28;20058;-79
2023/08/25 11:01:57;;;;;;;1.00;1.00;;;;;;;30.56;20.47;99688.75;4969698;28;20058;-79
2023/08/25 11:04:25;;;;;;;1.00;1.00;;;;;;;31.54;18.98;99673.72;4950738;28;20058;-80
2023/08/25 11:06:55;;;;;;;1.00;1.00;;;;;;;32.51;18.74;99677.22;4950989;28;20387;-80
2023/08/25 11:09:37;;;;;;;1.10;1.10;;;;;;;33.18;17.95;99697.53;4967603;28;20481;-79
2023/08/25 11:12:07;;;;;;;1.10;1.10;;;;;;;33.70;17.28;99681.94;4967293;28;20058;-79
2023/08/25 11:14:35;;;;;;;0.60;0.60;;;;;;;32.54;17.74;99670.69;4964530;28;20105;-82
2023/08/25 11:17:03;;;;;;;1.20;1.20;;;;;;;31.70;18.84;99670.28;4979446;28;20053;-81
2023/08/25 11:19:32;;;;;;;1.08;1.08;;;;;;;32.51;18.24;99679.25;4971690;28;20050;-81
2023/08/25 11:21:59;;;;;;;0.70;0.70;;;;;;;30.53;19.89;99681.94;4935250;28;20539;-81
2023/08/25 11:24:29;;;;;;;0.60;0.60;;;;;;;28.99;21.25;99682.19;4984007;28;20515;-81
2023/08/25 11:27:05;;;;;;;0.50;0.50;;;;;;;28.09;21.49;99682.88;4952843;28;20050;-82
2023/08/25 11:29:31;;;;;;;0.70;0.70;;;;;;;26.41;22.58;99641.84;4969681;28;20047;-82
2023/08/25 11:31:57;;;;;;;;;;;;;;;26.25;23.48;99681.31;4970599;28;20055;-77
2023/08/25 11:34:25;;;;;;;0.50;0.50;;;;;;;26.28;23.82;99671.34;4965516;28;19933;-79
2023/08/25 11:36:52;;;;;;;1.10;1.10;;;;;;;27.38;23.06;99685.78;4967043;28;20208;-78
2023/08/25 11:39:18;;;;;;;1.30;1.20;;;;;;;29.40;20.83;99675.25;4965330;28;20477;-80
2023/08/25 11:41:45;;;;;;;0.95;0.95;;;;;;;31.07;19.18;99668.56;4983860;28;20127;-80